sensor_id;sensor_type;location;lat;lon;timestamp;pressure;altitude;pressure_sealevel;temperature;humidity
12360;BME280;6244;51.460;7.090;2023-03-31T00:03:14;99578.50;;;10.36;76.63
12360;BME280;6244;51.460;7.090;2023-03-31T00:08:15;99568.22;;;10.33;76.55
12360;BME280;6244;51.460;7.090;2023-03-31T00:13:13;99563.94;;;10.32;76.57
12360;BME280;6244;51.460;7.090;2023-03-31T00:18:10;99543.91;;;10.31;76.41
12360;BME280;6244;51.460;7.090;2023-03-31T00:23:06;99534.53;;;10.27;76.32
12360;BME280;6244;51.460;7.090;2023-03-31T00:28:04;99526.56;;;10.28;76.40
12360;BME280;6244;51.460;7.090;2023-03-31T00:33:02;99526.69;;;10.27;76.18
12360;BME280;6244;51.460;7.090;2023-03-31T00:37:59;99507.81;;;10.35;75.88
12360;BME280;6244;51.460;7.090;2023-03-31T00:42:55;99496.47;;;10.34;75.53
12360;BME280;6244;51.460;7.090;2023-03-31T00:47:55;99495.22;;;10.40;75.35
12360;BME280;6244;51.460;7.090;2023-03-31T00:52:56;99479.06;;;10.46;74.90
12360;BME280;6244;51.460;7.090;2023-03-31T00:57:56;99480.25;;;10.42;75.38
12360;BME280;6244;51.460;7.090;2023-03-31T01:02:59;99459.16;;;10.43;75.65
12360;BME280;6244;51.460;7.090;2023-03-31T01:07:59;99446.44;;;10.50;74.73
12360;BME280;6244;51.460;7.090;2023-03-31T01:12:57;99446.31;;;10.51;74.89
12360;BME280;6244;51.460;7.090;2023-03-31T01:17:53;99427.22;;;10.49;75.97
12360;BME280;6244;51.460;7.090;2023-03-31T01:23:12;99409.13;;;10.34;77.72
12360;BME280;6244;51.460;7.090;2023-03-31T01:28:17;99404.91;;;10.18;78.93
12360;BME280;6244;51.460;7.090;2023-03-31T01:33:42;99406.38;;;10.10;80.52
12360;BME280;6244;51.460;7.090;2023-03-31T01:44:07;99387.31;;;9.95;81.39
12360;BME280;6244;51.460;7.090;2023-03-31T01:49:16;99381.84;;;9.98;81.54
12360;BME280;6244;51.460;7.090;2023-03-31T01:54:18;99375.25;;;10.05;81.11
12360;BME280;6244;51.460;7.090;2023-03-31T01:59:22;99364.78;;;10.05;80.98
12360;BME280;6244;51.460;7.090;2023-03-31T02:04:22;99359.72;;;10.02;81.19
12360;BME280;6244;51.460;7.090;2023-03-31T02:09:22;99345.38;;;9.95;81.69
12360;BME280;6244;51.460;7.090;2023-03-31T02:14:23;99333.97;;;9.96;81.66
12360;BME280;6244;51.460;7.090;2023-03-31T02:19:21;99316.13;;;9.88;82.72
12360;BME280;6244;51.460;7.090;2023-03-31T02:24:19;99312.91;;;9.85;83.23
12360;BME280;6244;51.460;7.090;2023-03-31T02:29:17;99306.63;;;9.75;83.86
12360;BME280;6244;51.460;7.090;2023-03-31T02:34:15;99288.81;;;9.67;84.83
12360;BME280;6244;51.460;7.090;2023-03-31T02:39:14;99287.47;;;9.61;85.57
12360;BME280;6244;51.460;7.090;2023-03-31T02:44:13;99262.00;;;9.63;86.01
12360;BME280;6244;51.460;7.090;2023-03-31T02:49:10;99248.50;;;9.57;86.83
12360;BME280;6244;51.460;7.090;2023-03-31T02:54:35;99233.44;;;9.48;87.51
12360;BME280;6244;51.460;7.090;2023-03-31T02:59:44;99213.84;;;9.40;88.02
12360;BME280;6244;51.460;7.090;2023-03-31T03:04:57;99198.97;;;9.28;89.60
12360;BME280;6244;51.460;7.090;2023-03-31T03:10:05;99187.66;;;9.28;89.44
12360;BME280;6244;51.460;7.090;2023-03-31T03:15:06;99180.66;;;9.28;89.77
12360;BME280;6244;51.460;7.090;2023-03-31T03:20:07;99173.84;;;9.26;90.20
12360;BME280;6244;51.460;7.090;2023-03-31T03:25:08;99151.47;;;9.22;90.43
12360;BME280;6244;51.460;7.090;2023-03-31T03:30:07;99130.53;;;9.22;89.92
12360;BME280;6244;51.460;7.090;2023-03-31T03:35:05;99140.66;;;9.26;89.81
12360;BME280;6244;51.460;7.090;2023-03-31T03:40:02;99127.56;;;9.26;89.82
12360;BME280;6244;51.460;7.090;2023-03-31T03:45:01;99108.31;;;9.27;90.23
12360;BME280;6244;51.460;7.090;2023-03-31T03:49:58;99097.84;;;9.27;90.17
12360;BME280;6244;51.460;7.090;2023-03-31T03:54:54;99081.59;;;9.35;89.88
12360;BME280;6244;51.460;7.090;2023-03-31T03:59:51;99081.59;;;9.35;89.94
12360;BME280;6244;51.460;7.090;2023-03-31T04:04:49;99077.00;;;9.26;90.18
12360;BME280;6244;51.460;7.090;2023-03-31T04:09:45;99047.72;;;9.21;90.46
12360;BME280;6244;51.460;7.090;2023-03-31T04:14:42;99042.28;;;9.24;89.94
12360;BME280;6244;51.460;7.090;2023-03-31T04:19:38;99015.25;;;9.23;89.32
12360;BME280;6244;51.460;7.090;2023-03-31T04:24:37;99020.84;;;9.19;89.89
12360;BME280;6244;51.460;7.090;2023-03-31T04:29:34;99007.53;;;9.22;89.84
12360;BME280;6244;51.460;7.090;2023-03-31T04:34:31;99029.41;;;9.21;89.57
12360;BME280;6244;51.460;7.090;2023-03-31T04:39:30;99000.16;;;9.27;89.20
12360;BME280;6244;51.460;7.090;2023-03-31T04:44:28;98982.91;;;9.24;89.80
12360;BME280;6244;51.460;7.090;2023-03-31T04:49:25;98975.28;;;9.21;89.40
12360;BME280;6244;51.460;7.090;2023-03-31T04:54:21;98968.81;;;9.14;90.12
12360;BME280;6244;51.460;7.090;2023-03-31T04:59:17;98954.28;;;9.10;90.48
12360;BME280;6244;51.460;7.090;2023-03-31T05:04:15;98935.97;;;9.10;89.95
12360;BME280;6244;51.460;7.090;2023-03-31T05:09:12;98926.56;;;9.07;89.89
12360;BME280;6244;51.460;7.090;2023-03-31T05:14:08;98918.31;;;9.01;90.13
12360;BME280;6244;51.460;7.090;2023-03-31T05:19:05;98894.78;;;9.01;89.58
12360;BME280;6244;51.460;7.090;2023-03-31T05:24:03;98883.34;;;9.02;89.79
12360;BME280;6244;51.460;7.090;2023-03-31T05:29:00;98877.75;;;8.95;90.30
12360;BME280;6244;51.460;7.090;2023-03-31T05:33:56;98864.38;;;9.11;90.06
12360;BME280;6244;51.460;7.090;2023-03-31T05:38:53;98857.59;;;9.08;89.11
12360;BME280;6244;51.460;7.090;2023-03-31T05:43:50;98848.97;;;8.95;89.94
12360;BME280;6244;51.460;7.090;2023-03-31T05:48:47;98829.88;;;9.06;90.14
12360;BME280;6244;51.460;7.090;2023-03-31T05:53:44;98819.41;;;9.06;89.61
12360;BME280;6244;51.460;7.090;2023-03-31T05:58:40;98811.56;;;9.06;88.98
12360;BME280;6244;51.460;7.090;2023-03-31T06:03:39;98807.31;;;8.92;89.89
12360;BME280;6244;51.460;7.090;2023-03-31T06:08:36;98802.59;;;8.97;89.55
12360;BME280;6244;51.460;7.090;2023-03-31T06:13:33;98790.91;;;8.90;89.56
12360;BME280;6244;51.460;7.090;2023-03-31T06:18:32;98789.13;;;8.91;89.84
12360;BME280;6244;51.460;7.090;2023-03-31T06:23:30;98799.47;;;8.92;89.39
12360;BME280;6244;51.460;7.090;2023-03-31T06:28:27;98785.91;;;8.87;89.21
12360;BME280;6244;51.460;7.090;2023-03-31T06:33:24;98784.91;;;8.77;90.38
12360;BME280;6244;51.460;7.090;2023-03-31T06:38:20;98783.13;;;8.77;90.39
12360;BME280;6244;51.460;7.090;2023-03-31T06:43:18;98782.88;;;8.69;90.57
12360;BME280;6244;51.460;7.090;2023-03-31T06:48:15;98781.53;;;8.64;90.74
12360;BME280;6244;51.460;7.090;2023-03-31T06:53:11;98787.84;;;8.61;90.89
12360;BME280;6244;51.460;7.090;2023-03-31T06:58:08;98777.38;;;8.61;91.61
12360;BME280;6244;51.460;7.090;2023-03-31T07:03:07;98782.72;;;8.60;91.83
12360;BME280;6244;51.460;7.090;2023-03-31T07:08:04;98768.94;;;8.58;91.47
12360;BME280;6244;51.460;7.090;2023-03-31T07:13:01;98775.19;;;8.55;91.75
12360;BME280;6244;51.460;7.090;2023-03-31T07:17:57;98774.47;;;8.53;92.02
12360;BME280;6244;51.460;7.090;2023-03-31T07:22:57;98776.03;;;8.56;92.56
12360;BME280;6244;51.460;7.090;2023-03-31T07:27:54;98763.06;;;8.54;92.33
12360;BME280;6244;51.460;7.090;2023-03-31T07:32:51;98752.25;;;8.47;92.48
12360;BME280;6244;51.460;7.090;2023-03-31T07:37:49;98748.28;;;8.42;92.50
12360;BME280;6244;51.460;7.090;2023-03-31T07:42:48;98743.78;;;8.44;92.63
12360;BME280;6244;51.460;7.090;2023-03-31T07:47:46;98744.41;;;8.47;93.00
12360;BME280;6244;51.460;7.090;2023-03-31T07:52:43;98739.78;;;8.51;92.81
12360;BME280;6244;51.460;7.090;2023-03-31T07:57:40;98745.34;;;8.46;92.50
12360;BME280;6244;51.460;7.090;2023-03-31T08:02:38;98739.28;;;8.46;93.05
12360;BME280;6244;51.460;7.090;2023-03-31T08:07:36;98738.94;;;8.50;93.18
12360;BME280;6244;51.460;7.090;2023-03-31T08:12:33;98737.31;;;8.61;92.96
12360;BME280;6244;51.460;7.090;2023-03-31T08:17:29;98741.94;;;8.57;92.41
12360;BME280;6244;51.460;7.090;2023-03-31T08:22:27;98747.19;;;8.57;92.02
12360;BME280;6244;51.460;7.090;2023-03-31T08:27:24;98734.72;;;8.61;92.54
12360;BME280;6244;51.460;7.090;2023-03-31T08:32:21;98726.16;;;8.59;92.27
12360;BME280;6244;51.460;7.090;2023-03-31T08:37:19;98738.75;;;8.65;92.37
12360;BME280;6244;51.460;7.090;2023-03-31T08:42:20;98721.53;;;8.62;92.29
12360;BME280;6244;51.460;7.090;2023-03-31T08:47:22;98719.03;;;8.61;92.35
12360;BME280;6244;51.460;7.090;2023-03-31T08:52:23;98717.69;;;8.55;92.35
12360;BME280;6244;51.460;7.090;2023-03-31T08:57:25;98698.81;;;8.63;92.81
12360;BME280;6244;51.460;7.090;2023-03-31T09:02:28;98700.16;;;8.68;92.47
12360;BME280;6244;51.460;7.090;2023-03-31T09:07:34;98687.94;;;8.80;92.97
12360;BME280;6244;51.460;7.090;2023-03-31T09:12:43;98692.16;;;8.94;92.69
12360;BME280;6244;51.460;7.090;2023-03-31T09:17:43;98687.66;;;9.07;92.78
12360;BME280;6244;51.460;7.090;2023-03-31T09:22:44;98673.13;;;9.25;92.90
12360;BME280;6244;51.460;7.090;2023-03-31T09:27:43;98668.03;;;9.35;92.42
12360;BME280;6244;51.460;7.090;2023-03-31T09:32:41;98667.06;;;9.47;92.35
12360;BME280;6244;51.460;7.090;2023-03-31T09:37:38;98671.59;;;9.67;92.49
12360;BME280;6244;51.460;7.090;2023-03-31T09:42:36;98652.38;;;9.78;92.45
12360;BME280;6244;51.460;7.090;2023-03-31T09:47:38;98648.59;;;9.71;92.17
12360;BME280;6244;51.460;7.090;2023-03-31T09:52:38;98641.72;;;9.70;92.36
12360;BME280;6244;51.460;7.090;2023-03-31T09:57:38;98637.75;;;9.76;92.42
12360;BME280;6244;51.460;7.090;2023-03-31T10:02:37;98634.06;;;9.67;92.51
12360;BME280;6244;51.460;7.090;2023-03-31T10:07:36;98611.22;;;9.80;92.64
12360;BME280;6244;51.460;7.090;2023-03-31T10:12:33;98604.22;;;10.01;92.46
12360;BME280;6244;51.460;7.090;2023-03-31T10:17:31;98594.16;;;10.18;92.49
12360;BME280;6244;51.460;7.090;2023-03-31T10:22:32;98589.41;;;10.44;91.92
12360;BME280;6244;51.460;7.090;2023-03-31T10:27:30;98594.66;;;10.44;90.32
12360;BME280;6244;51.460;7.090;2023-03-31T10:32:29;98635.78;;;10.00;88.97
12360;BME280;6244;51.460;7.090;2023-03-31T10:37:27;98609.72;;;8.88;88.35
12360;BME280;6244;51.460;7.090;2023-03-31T10:42:27;98600.72;;;8.81;90.07
12360;BME280;6244;51.460;7.090;2023-03-31T10:47:24;98597.88;;;8.95;89.56
12360;BME280;6244;51.460;7.090;2023-03-31T10:52:22;98585.13;;;9.13;91.03
12360;BME280;6244;51.460;7.090;2023-03-31T10:57:23;98574.75;;;9.45;90.70
12360;BME280;6244;51.460;7.090;2023-03-31T11:02:48;98571.94;;;10.01;91.26
12360;BME280;6244;51.460;7.090;2023-03-31T11:07:58;98557.66;;;10.98;90.80
12360;BME280;6244;51.460;7.090;2023-03-31T11:13:00;98559.97;;;11.22;87.88
12360;BME280;6244;51.460;7.090;2023-03-31T11:18:13;98597.44;;;10.73;87.44
12360;BME280;6244;51.460;7.090;2023-03-31T11:23:19;98592.59;;;9.94;85.90
12360;BME280;6244;51.460;7.090;2023-03-31T11:28:25;98610.56;;;9.88;86.80
12360;BME280;6244;51.460;7.090;2023-03-31T11:33:37;98599.50;;;9.95;87.93
12360;BME280;6244;51.460;7.090;2023-03-31T11:38:46;98612.31;;;9.98;86.87
12360;BME280;6244;51.460;7.090;2023-03-31T11:43:47;98591.47;;;10.08;87.43
12360;BME280;6244;51.460;7.090;2023-03-31T11:48:50;98581.41;;;10.45;86.95
12360;BME280;6244;51.460;7.090;2023-03-31T11:53:53;98587.84;;;10.83;81.50
12360;BME280;6244;51.460;7.090;2023-03-31T11:58:53;98586.81;;;11.35;79.74
12360;BME280;6244;51.460;7.090;2023-03-31T12:03:56;98575.47;;;11.35;78.03
12360;BME280;6244;51.460;7.090;2023-03-31T12:09:04;98576.13;;;11.17;77.43
12360;BME280;6244;51.460;7.090;2023-03-31T12:14:12;98564.91;;;11.15;77.64
12360;BME280;6244;51.460;7.090;2023-03-31T12:19:15;98561.66;;;11.33;76.01
12360;BME280;6244;51.460;7.090;2023-03-31T12:24:12;98552.16;;;11.41;75.05
12360;BME280;6244;51.460;7.090;2023-03-31T12:29:18;98548.56;;;11.42;71.66
12360;BME280;6244;51.460;7.090;2023-03-31T12:34:19;98549.78;;;11.48;71.78
12360;BME280;6244;51.460;7.090;2023-03-31T12:39:24;98563.19;;;11.45;72.42
12360;BME280;6244;51.460;7.090;2023-03-31T12:44:32;98560.50;;;11.26;74.42
12360;BME280;6244;51.460;7.090;2023-03-31T12:49:42;98564.50;;;10.80;78.54
12360;BME280;6244;51.460;7.090;2023-03-31T12:54:59;98544.59;;;10.77;79.68
12360;BME280;6244;51.460;7.090;2023-03-31T13:00:24;98527.13;;;10.97;79.78
12360;BME280;6244;51.460;7.090;2023-03-31T13:05:44;98525.28;;;11.18;78.30
12360;BME280;6244;51.460;7.090;2023-03-31T13:10:54;98510.56;;;11.56;77.50
12360;BME280;6244;51.460;7.090;2023-03-31T13:15:54;98506.03;;;12.07;72.91
12360;BME280;6244;51.460;7.090;2023-03-31T13:20:58;98498.97;;;12.07;73.42
12360;BME280;6244;51.460;7.090;2023-03-31T13:25:56;98500.19;;;12.13;73.34
12360;BME280;6244;51.460;7.090;2023-03-31T13:30:55;98493.13;;;12.13;73.34
12360;BME280;6244;51.460;7.090;2023-03-31T13:36:01;98488.97;;;12.30;69.01
12360;BME280;6244;51.460;7.090;2023-03-31T13:41:26;98498.50;;;12.41;70.30
12360;BME280;6244;51.460;7.090;2023-03-31T13:46:57;98486.91;;;12.61;67.37
12360;BME280;6244;51.460;7.090;2023-03-31T13:52:07;98478.88;;;12.62;65.43
12360;BME280;6244;51.460;7.090;2023-03-31T13:57:26;98487.31;;;12.66;64.14
12360;BME280;6244;51.460;7.090;2023-03-31T14:02:35;98483.59;;;12.59;65.14
12360;BME280;6244;51.460;7.090;2023-03-31T14:07:39;98481.41;;;12.54;65.01
12360;BME280;6244;51.460;7.090;2023-03-31T14:12:39;98471.25;;;12.69;64.18
12360;BME280;6244;51.460;7.090;2023-03-31T14:17:36;98459.63;;;12.89;62.67
12360;BME280;6244;51.460;7.090;2023-03-31T14:22:45;98450.19;;;12.97;61.45
12360;BME280;6244;51.460;7.090;2023-03-31T14:27:51;98452.66;;;12.98;61.16
12360;BME280;6244;51.460;7.090;2023-03-31T14:33:00;98441.41;;;13.06;59.66
12360;BME280;6244;51.460;7.090;2023-03-31T14:38:05;98419.38;;;13.07;59.49
12360;BME280;6244;51.460;7.090;2023-03-31T14:43:05;98425.63;;;13.06;58.75
12360;BME280;6244;51.460;7.090;2023-03-31T14:48:08;98421.38;;;13.13;59.51
12360;BME280;6244;51.460;7.090;2023-03-31T14:53:14;98412.03;;;13.01;58.03
12360;BME280;6244;51.460;7.090;2023-03-31T14:58:13;98433.75;;;12.85;57.18
12360;BME280;6244;51.460;7.090;2023-03-31T15:03:14;98419.09;;;12.82;58.00
12360;BME280;6244;51.460;7.090;2023-03-31T15:08:17;98443.47;;;12.57;63.35
12360;BME280;6244;51.460;7.090;2023-03-31T15:13:19;98450.16;;;11.85;68.09
12360;BME280;6244;51.460;7.090;2023-03-31T15:18:18;98467.53;;;11.47;72.63
12360;BME280;6244;51.460;7.090;2023-03-31T15:23:21;98480.66;;;11.18;74.71
12360;BME280;6244;51.460;7.090;2023-03-31T15:28:19;98491.78;;;11.01;76.51
12360;BME280;6244;51.460;7.090;2023-03-31T15:33:19;98485.53;;;10.83;78.29
12360;BME280;6244;51.460;7.090;2023-03-31T15:38:17;98448.16;;;10.60;79.46
12360;BME280;6244;51.460;7.090;2023-03-31T15:43:16;98454.00;;;10.73;79.04
12360;BME280;6244;51.460;7.090;2023-03-31T15:48:17;98451.78;;;10.78;77.77
12360;BME280;6244;51.460;7.090;2023-03-31T15:53:24;98440.38;;;10.79;77.73
12360;BME280;6244;51.460;7.090;2023-03-31T15:58:45;98435.25;;;10.87;77.54
12360;BME280;6244;51.460;7.090;2023-03-31T16:03:43;98449.34;;;10.86;76.17
12360;BME280;6244;51.460;7.090;2023-03-31T16:08:43;98471.84;;;10.89;75.54
12360;BME280;6244;51.460;7.090;2023-03-31T16:13:45;98448.41;;;10.97;74.11
12360;BME280;6244;51.460;7.090;2023-03-31T16:18:46;98442.47;;;10.95;74.54
12360;BME280;6244;51.460;7.090;2023-03-31T16:23:50;98438.31;;;11.02;74.35
12360;BME280;6244;51.460;7.090;2023-03-31T16:28:51;98443.72;;;11.01;74.53
12360;BME280;6244;51.460;7.090;2023-03-31T16:33:53;98439.28;;;11.01;75.07
12360;BME280;6244;51.460;7.090;2023-03-31T16:38:50;98431.44;;;10.92;74.13
12360;BME280;6244;51.460;7.090;2023-03-31T16:43:47;98432.34;;;10.91;73.57
12360;BME280;6244;51.460;7.090;2023-03-31T16:48:45;98444.78;;;10.88;73.97
12360;BME280;6244;51.460;7.090;2023-03-31T16:53:42;98444.50;;;10.82;74.46
12360;BME280;6244;51.460;7.090;2023-03-31T16:58:40;98436.06;;;10.69;75.43
12360;BME280;6244;51.460;7.090;2023-03-31T17:03:36;98429.50;;;10.53;76.43
12360;BME280;6244;51.460;7.090;2023-03-31T17:08:37;98423.53;;;10.42;77.59
12360;BME280;6244;51.460;7.090;2023-03-31T17:13:34;98424.69;;;10.28;79.02
12360;BME280;6244;51.460;7.090;2023-03-31T17:18:30;98422.78;;;10.09;81.42
12360;BME280;6244;51.460;7.090;2023-03-31T17:23:27;98423.25;;;9.93;82.74
12360;BME280;6244;51.460;7.090;2023-03-31T17:28:25;98427.78;;;9.70;84.38
12360;BME280;6244;51.460;7.090;2023-03-31T17:33:22;98436.28;;;9.63;85.72
12360;BME280;6244;51.460;7.090;2023-03-31T17:38:19;98447.63;;;9.52;86.66
12360;BME280;6244;51.460;7.090;2023-03-31T17:43:16;98453.38;;;9.46;87.15
12360;BME280;6244;51.460;7.090;2023-03-31T17:48:14;98439.84;;;9.30;87.85
12360;BME280;6244;51.460;7.090;2023-03-31T17:53:11;98447.94;;;9.27;88.18
12360;BME280;6244;51.460;7.090;2023-03-31T17:58:08;98440.94;;;9.27;87.05
12360;BME280;6244;51.460;7.090;2023-03-31T18:03:07;98456.91;;;9.24;87.25
12360;BME280;6244;51.460;7.090;2023-03-31T18:08:06;98451.56;;;9.15;88.57
12360;BME280;6244;51.460;7.090;2023-03-31T18:13:03;98449.56;;;9.07;89.29
12360;BME280;6244;51.460;7.090;2023-03-31T18:17:59;98447.78;;;9.07;89.29
12360;BME280;6244;51.460;7.090;2023-03-31T18:22:56;98449.69;;;9.05;88.63
12360;BME280;6244;51.460;7.090;2023-03-31T18:27:54;98459.22;;;9.06;88.71
12360;BME280;6244;51.460;7.090;2023-03-31T18:32:50;98448.69;;;9.18;88.01
12360;BME280;6244;51.460;7.090;2023-03-31T18:37:47;98447.50;;;9.22;87.85
12360;BME280;6244;51.460;7.090;2023-03-31T18:42:44;98460.47;;;9.23;87.63
12360;BME280;6244;51.460;7.090;2023-03-31T18:47:43;98443.09;;;9.22;87.64
12360;BME280;6244;51.460;7.090;2023-03-31T18:52:39;98441.53;;;9.31;86.12
12360;BME280;6244;51.460;7.090;2023-03-31T18:57:36;98452.19;;;9.39;83.92
12360;BME280;6244;51.460;7.090;2023-03-31T19:02:32;98457.53;;;9.49;83.08
12360;BME280;6244;51.460;7.090;2023-03-31T19:07:30;98470.47;;;9.50;82.87
12360;BME280;6244;51.460;7.090;2023-03-31T19:12:27;98460.00;;;9.50;82.72
12360;BME280;6244;51.460;7.090;2023-03-31T19:17:24;98459.75;;;9.53;82.62
12360;BME280;6244;51.460;7.090;2023-03-31T19:22:29;98459.88;;;9.52;81.56
12360;BME280;6244;51.460;7.090;2023-03-31T19:27:25;98475.72;;;9.50;81.47
12360;BME280;6244;51.460;7.090;2023-03-31T19:32:22;98465.50;;;9.47;82.93
12360;BME280;6244;51.460;7.090;2023-03-31T19:37:18;98469.25;;;9.33;84.21
12360;BME280;6244;51.460;7.090;2023-03-31T19:42:16;98461.69;;;9.19;85.41
12360;BME280;6244;51.460;7.090;2023-03-31T19:47:13;98455.38;;;9.10;86.26
12360;BME280;6244;51.460;7.090;2023-03-31T19:52:10;98458.97;;;9.09;86.38
12360;BME280;6244;51.460;7.090;2023-03-31T19:57:07;98460.25;;;9.04;86.72
12360;BME280;6244;51.460;7.090;2023-03-31T20:02:04;98452.78;;;8.99;87.07
12360;BME280;6244;51.460;7.090;2023-03-31T20:07:02;98452.31;;;9.05;87.66
12360;BME280;6244;51.460;7.090;2023-03-31T20:11:59;98454.84;;;8.85;88.04
12360;BME280;6244;51.460;7.090;2023-03-31T20:16:56;98441.28;;;8.79;89.04
12360;BME280;6244;51.460;7.090;2023-03-31T20:21:56;98433.94;;;8.85;89.30
12360;BME280;6244;51.460;7.090;2023-03-31T20:26:53;98434.88;;;8.83;88.79
12360;BME280;6244;51.460;7.090;2023-03-31T20:31:49;98430.94;;;8.89;87.09
12360;BME280;6244;51.460;7.090;2023-03-31T20:36:46;98447.00;;;8.85;87.42
12360;BME280;6244;51.460;7.090;2023-03-31T20:41:47;98436.53;;;8.85;87.96
12360;BME280;6244;51.460;7.090;2023-03-31T20:46:44;98437.72;;;8.80;88.20
12360;BME280;6244;51.460;7.090;2023-03-31T20:51:40;98433.81;;;8.86;86.70
12360;BME280;6244;51.460;7.090;2023-03-31T20:56:40;98436.88;;;8.91;86.29
12360;BME280;6244;51.460;7.090;2023-03-31T21:01:38;98437.50;;;8.83;87.22
12360;BME280;6244;51.460;7.090;2023-03-31T21:06:38;98431.19;;;8.86;87.10
12360;BME280;6244;51.460;7.090;2023-03-31T21:11:35;98441.53;;;8.88;86.61
12360;BME280;6244;51.460;7.090;2023-03-31T21:16:33;98428.13;;;8.81;87.14
12360;BME280;6244;51.460;7.090;2023-03-31T21:21:31;98442.13;;;8.80;87.26
12360;BME280;6244;51.460;7.090;2023-03-31T21:26:29;98449.88;;;8.81;87.18
12360;BME280;6244;51.460;7.090;2023-03-31T21:31:26;98440.09;;;8.83;86.66
12360;BME280;6244;51.460;7.090;2023-03-31T21:36:23;98441.06;;;8.82;86.87
12360;BME280;6244;51.460;7.090;2023-03-31T21:41:27;98445.47;;;8.82;86.96
12360;BME280;6244;51.460;7.090;2023-03-31T21:46:26;98448.41;;;8.77;86.70
12360;BME280;6244;51.460;7.090;2023-03-31T21:51:23;98439.41;;;8.81;86.48
12360;BME280;6244;51.460;7.090;2023-03-31T21:56:21;98442.72;;;8.83;86.70
12360;BME280;6244;51.460;7.090;2023-03-31T22:01:19;98437.63;;;8.82;86.58
12360;BME280;6244;51.460;7.090;2023-03-31T22:06:16;98432.38;;;8.82;85.86
12360;BME280;6244;51.460;7.090;2023-03-31T22:11:13;98424.03;;;8.88;85.63
12360;BME280;6244;51.460;7.090;2023-03-31T22:16:14;98418.81;;;8.88;85.72
12360;BME280;6244;51.460;7.090;2023-03-31T22:21:17;98427.38;;;8.90;85.32
12360;BME280;6244;51.460;7.090;2023-03-31T22:26:14;98426.66;;;8.88;85.05
12360;BME280;6244;51.460;7.090;2023-03-31T22:31:11;98438.19;;;8.86;85.37
12360;BME280;6244;51.460;7.090;2023-03-31T22:36:07;98440.94;;;8.73;86.44
12360;BME280;6244;51.460;7.090;2023-03-31T22:41:05;98422.66;;;8.73;86.37
12360;BME280;6244;51.460;7.090;2023-03-31T22:46:03;98425.25;;;8.73;86.62
12360;BME280;6244;51.460;7.090;2023-03-31T22:51:01;98449.75;;;8.72;86.30
12360;BME280;6244;51.460;7.090;2023-03-31T22:56:04;98413.59;;;8.77;85.64
12360;BME280;6244;51.460;7.090;2023-03-31T23:01:03;98424.88;;;8.77;85.18
12360;BME280;6244;51.460;7.090;2023-03-31T23:06:02;98406.13;;;8.83;84.62
12360;BME280;6244;51.460;7.090;2023-03-31T23:10:59;98402.53;;;8.85;85.10
12360;BME280;6244;51.460;7.090;2023-03-31T23:16:03;98416.31;;;8.87;84.62
12360;BME280;6244;51.460;7.090;2023-03-31T23:21:02;98420.16;;;8.82;85.42
12360;BME280;6244;51.460;7.090;2023-03-31T23:26:00;98411.97;;;8.65;86.29
12360;BME280;6244;51.460;7.090;2023-03-31T23:30:56;98420.50;;;8.67;86.32
12360;BME280;6244;51.460;7.090;2023-03-31T23:35:58;98411.38;;;8.72;86.89
12360;BME280;6244;51.460;7.090;2023-03-31T23:40:55;98424.78;;;8.68;86.25
12360;BME280;6244;51.460;7.090;2023-03-31T23:45:53;98417.31;;;8.63;87.00
12360;BME280;6244;51.460;7.090;2023-03-31T23:50:49;98415.91;;;8.59;87.84
12360;BME280;6244;51.460;7.090;2023-03-31T23:55:53;98414.69;;;8.52;88.37
